createdAt,value
2023-05-04T00:01:02.090Z,3.80
2023-05-04T00:03:30.726Z,3.60
2023-05-04T00:05:59.489Z,3.10
2023-05-04T00:08:28.477Z,3.50
2023-05-04T00:10:57.588Z,3.50
2023-05-04T00:13:26.136Z,3.20
2023-05-04T00:15:54.870Z,3.30
2023-05-04T00:18:23.611Z,2.80
2023-05-04T00:20:52.292Z,4.00
2023-05-04T00:23:21.034Z,3.00
2023-05-04T00:25:49.562Z,2.90
2023-05-04T00:28:18.161Z,2.90
2023-05-04T00:30:47.143Z,3.20
2023-05-04T00:33:15.928Z,3.70
2023-05-04T00:35:44.618Z,3.70
2023-05-04T00:38:13.710Z,3.20
2023-05-04T00:40:42.399Z,4.10
2023-05-04T00:43:11.085Z,3.60
2023-05-04T00:45:43.377Z,3.60
2023-05-04T00:48:14.662Z,3.50
2023-05-04T00:50:44.208Z,4.40
2023-05-04T00:53:12.892Z,3.30
2023-05-04T00:55:41.594Z,3.50
2023-05-04T00:58:10.154Z,2.80
2023-05-04T01:00:39.081Z,3.70
2023-05-04T01:03:10.007Z,3.40
2023-05-04T01:09:38.902Z,3.30
2023-05-04T01:12:30.863Z,3.60
2023-05-04T01:15:00.722Z,3.40
2023-05-04T01:17:30.511Z,4.00
2023-05-04T01:19:59.247Z,4.10
2023-05-04T01:22:28.138Z,3.60
2023-05-04T01:24:57.227Z,4.30
2023-05-04T01:27:38.820Z,4.00
2023-05-04T01:30:14.157Z,4.10
2023-05-04T01:32:43.776Z,4.20
2023-05-04T01:35:15.152Z,3.50
2023-05-04T01:37:44.108Z,3.50
2023-05-04T01:40:13.236Z,3.70
2023-05-04T01:42:41.890Z,4.20
2023-05-04T01:45:11.410Z,3.90
2023-05-04T01:47:39.934Z,3.70
2023-05-04T01:50:09.501Z,5.00
2023-05-04T01:52:38.394Z,3.40
2023-05-04T01:55:07.799Z,3.70
2023-05-04T01:57:36.357Z,3.80
2023-05-04T02:00:05.563Z,4.10
2023-05-04T02:02:44.204Z,3.80
2023-05-04T02:05:16.272Z,3.80
2023-05-04T02:07:44.817Z,3.50
2023-05-04T02:10:13.632Z,4.30
2023-05-04T02:12:43.400Z,3.20
2023-05-04T02:15:13.041Z,4.30
2023-05-04T02:17:41.687Z,5.10
2023-05-04T02:20:10.909Z,4.40
2023-05-04T02:22:39.944Z,5.00
2023-05-04T02:25:08.908Z,6.30
2023-05-04T02:27:38.561Z,3.90
2023-05-04T02:30:08.316Z,4.50
2023-05-04T02:32:36.880Z,5.50
2023-05-04T02:35:06.201Z,4.20
2023-05-04T02:37:34.738Z,5.50
2023-05-04T02:40:06.296Z,4.90
2023-05-04T02:42:35.029Z,5.60
2023-05-04T02:45:04.129Z,5.90
2023-05-04T02:47:32.693Z,6.10
2023-05-04T02:50:04.984Z,5.50
2023-05-04T02:52:34.243Z,5.60
2023-05-04T02:55:03.512Z,6.00
2023-05-04T02:57:38.201Z,7.40
2023-05-04T03:00:07.620Z,6.50
2023-05-04T03:02:39.318Z,5.30
2023-05-04T03:05:10.756Z,5.10
2023-05-04T03:07:40.629Z,5.40
2023-05-04T03:10:24.007Z,6.50
2023-05-04T03:12:52.709Z,5.30
2023-05-04T03:15:21.641Z,5.30
2023-05-04T03:17:50.176Z,5.00
2023-05-04T03:20:18.964Z,6.40
2023-05-04T03:22:47.583Z,5.10
2023-05-04T03:25:16.467Z,6.60
2023-05-04T03:27:45.165Z,7.00
2023-05-04T03:30:14.256Z,6.80
2023-05-04T03:32:43.272Z,6.90
2023-05-04T03:35:13.080Z,6.10
2023-05-04T03:37:43.498Z,6.70
2023-05-04T03:40:13.234Z,5.70
2023-05-04T03:42:41.814Z,8.60
2023-05-04T03:45:11.385Z,5.90
2023-05-04T03:47:39.992Z,5.20
2023-05-04T03:50:09.870Z,6.00
2023-05-04T03:52:38.290Z,5.10
2023-05-04T03:55:07.573Z,6.20
2023-05-04T03:57:36.084Z,5.70
2023-05-04T04:00:06.598Z,5.50
2023-05-04T04:02:43.453Z,7.00
2023-05-04T04:05:16.944Z,5.30
2023-05-04T04:07:46.554Z,7.50
2023-05-04T04:10:15.053Z,7.50
2023-05-04T04:12:44.162Z,6.10
2023-05-04T04:15:13.241Z,7.60
2023-05-04T04:17:41.962Z,7.60
2023-05-04T04:20:12.036Z,7.20
2023-05-04T04:22:40.575Z,8.10
2023-05-04T04:25:10.628Z,7.50
2023-05-04T04:27:39.529Z,8.00
2023-05-04T04:30:08.851Z,6.60
2023-05-04T04:32:37.765Z,6.90
2023-05-04T04:35:07.228Z,7.10
2023-05-04T04:37:35.703Z,7.30
2023-05-04T04:40:04.872Z,7.50
2023-05-04T04:42:34.159Z,8.30
2023-05-04T04:45:05.758Z,9.00
2023-05-04T04:47:34.278Z,6.20
2023-05-04T04:50:04.975Z,7.20
2023-05-04T04:52:35.106Z,7.20
2023-05-04T04:55:07.730Z,8.10
2023-05-04T04:57:36.560Z,8.10
2023-05-04T05:00:10.416Z,7.70
2023-05-04T05:02:38.980Z,7.30
2023-05-04T05:05:08.892Z,7.00
2023-05-04T05:07:37.354Z,6.90
2023-05-04T05:10:07.054Z,6.60
2023-05-04T05:12:36.284Z,6.70
2023-05-04T05:15:05.417Z,6.70
2023-05-04T05:17:35.979Z,7.00
2023-05-04T05:20:10.942Z,6.50
2023-05-04T05:22:40.644Z,6.20
2023-05-04T05:25:09.349Z,6.40
2023-05-04T05:27:38.216Z,6.70
2023-05-04T05:30:07.666Z,6.40
2023-05-04T05:32:36.517Z,7.60
2023-05-04T05:35:05.855Z,6.30
2023-05-04T05:37:34.476Z,7.20
2023-05-04T05:40:06.628Z,6.10
2023-05-04T05:42:35.867Z,6.90
2023-05-04T05:45:09.362Z,6.70
2023-05-04T05:47:37.902Z,5.50
2023-05-04T05:50:08.073Z,6.80
2023-05-04T05:52:36.648Z,5.90
2023-05-04T05:55:05.720Z,6.80
2023-05-04T05:57:36.963Z,6.50
2023-05-04T06:00:07.129Z,5.70
2023-05-04T06:02:42.024Z,6.10
2023-05-04T06:05:11.240Z,6.20
2023-05-04T06:07:39.642Z,6.20
2023-05-04T06:10:09.758Z,5.50
2023-05-04T06:12:38.564Z,6.30
2023-05-04T06:15:08.499Z,7.60
2023-05-04T06:17:37.129Z,6.10
2023-05-04T06:20:07.858Z,5.00
2023-05-04T06:22:36.528Z,7.20
2023-05-04T06:25:07.984Z,6.80
2023-05-04T06:27:37.373Z,6.70
2023-05-04T06:30:07.345Z,6.30
2023-05-04T06:32:36.195Z,5.90
2023-05-04T06:35:05.862Z,6.00
2023-05-04T06:37:34.285Z,6.30
2023-05-04T06:40:04.373Z,6.00
2023-05-04T06:42:33.709Z,5.30
2023-05-04T06:45:02.404Z,6.10
2023-05-04T06:47:31.340Z,5.40
2023-05-04T06:50:00.307Z,5.00
2023-05-04T06:52:30.273Z,5.00
2023-05-04T06:55:00.336Z,6.00
2023-05-04T06:57:29.884Z,6.40
2023-05-04T06:59:58.825Z,6.50
2023-05-04T07:02:27.611Z,4.90
2023-05-04T07:04:57.894Z,6.70
2023-05-04T07:07:26.787Z,5.50
2023-05-04T07:09:55.281Z,4.90
2023-05-04T07:12:24.072Z,5.10
2023-05-04T07:15:01.678Z,4.60
2023-05-04T07:17:32.446Z,4.70
2023-05-04T07:20:06.159Z,6.10
2023-05-04T07:22:34.965Z,5.50
2023-05-04T07:25:05.908Z,5.20
2023-05-04T07:27:38.295Z,5.90
2023-05-04T07:30:08.461Z,5.50
2023-05-04T07:32:37.200Z,6.50
2023-05-04T07:35:06.796Z,5.10
2023-05-04T07:37:35.505Z,7.80
2023-05-04T07:40:06.400Z,6.00
2023-05-04T07:42:35.425Z,5.20
2023-05-04T07:45:14.642Z,6.90
2023-05-04T07:47:46.005Z,6.00
2023-05-04T07:50:15.818Z,6.50
2023-05-04T07:52:49.404Z,7.00
2023-05-04T07:55:19.222Z,6.20
2023-05-04T07:57:48.014Z,6.50
2023-05-04T08:00:17.531Z,6.70
2023-05-04T08:02:47.810Z,7.00
2023-05-04T08:05:16.747Z,7.20
2023-05-04T08:07:46.362Z,7.60
2023-05-04T08:10:14.915Z,6.60
2023-05-04T08:12:44.283Z,7.40
2023-05-04T08:15:13.309Z,7.10
2023-05-04T08:17:41.905Z,7.50
2023-05-04T08:20:10.983Z,6.40
2023-05-04T08:22:39.584Z,15.50
2023-05-04T08:25:09.758Z,6.90
2023-05-04T08:27:39.941Z,8.50
2023-05-04T08:30:09.910Z,8.00
2023-05-04T08:32:38.462Z,9.30
2023-05-04T08:35:16.234Z,6.70
2023-05-04T08:37:45.324Z,6.60
2023-05-04T08:40:14.537Z,5.80
2023-05-04T08:42:44.650Z,7.90
2023-05-04T08:45:13.628Z,8.40
2023-05-04T08:47:45.349Z,8.60
2023-05-04T08:50:20.466Z,7.60
2023-05-04T08:52:53.274Z,7.90
2023-05-04T08:55:50.010Z,7.00
2023-05-04T13:53:47.180Z,5.80
2023-05-04T13:56:15.956Z,4.20
2023-05-04T13:58:45.170Z,3.70
2023-05-04T14:01:14.305Z,3.70
2023-05-04T14:03:43.547Z,7.70
2023-05-04T14:06:12.023Z,5.90
2023-05-04T14:08:41.432Z,4.00
2023-05-04T14:11:10.565Z,4.60
2023-05-04T14:13:38.944Z,4.10
2023-05-04T14:16:08.636Z,4.10
2023-05-04T14:18:37.772Z,4.10
2023-05-04T14:21:06.384Z,4.20
2023-05-04T14:23:35.692Z,4.60
2023-05-04T14:26:05.627Z,4.40
2023-05-04T14:28:35.853Z,3.70
2023-05-04T14:31:09.230Z,5.10
2023-05-04T14:33:42.504Z,3.80
2023-05-04T14:36:12.113Z,6.80
2023-05-04T14:38:40.943Z,3.80
2023-05-04T14:41:10.655Z,3.80
2023-05-04T14:43:39.430Z,3.60
2023-05-04T14:46:09.765Z,3.10
2023-05-04T14:48:38.374Z,4.00
2023-05-04T14:51:07.319Z,3.90
2023-05-04T14:53:37.255Z,3.20
2023-05-04T14:56:08.852Z,4.50
2023-05-04T14:58:37.673Z,3.60
2023-05-04T15:01:07.104Z,4.40
2023-05-04T15:03:36.398Z,3.40
2023-05-04T15:06:07.766Z,3.50
2023-05-04T15:08:36.980Z,3.30
2023-05-04T15:11:05.807Z,4.20
2023-05-04T15:13:34.392Z,4.40
2023-05-04T15:16:03.940Z,4.70
2023-05-04T15:18:32.382Z,3.60
2023-05-04T15:21:01.268Z,3.70
2023-05-04T15:23:29.764Z,3.20
2023-05-04T15:25:58.433Z,4.10
2023-05-04T15:28:27.021Z,3.50
2023-05-04T15:30:56.625Z,3.20
2023-05-04T15:33:25.319Z,3.60
2023-05-04T15:35:53.827Z,3.80
2023-05-04T15:38:22.367Z,3.10
2023-05-04T15:40:50.952Z,4.50
2023-05-04T15:43:19.561Z,3.80
2023-05-04T15:45:48.224Z,4.40
2023-05-04T15:48:16.974Z,4.00
2023-05-04T15:50:45.805Z,5.00
2023-05-04T15:53:14.892Z,3.70
2023-05-04T15:55:43.474Z,3.60
2023-05-04T15:58:12.300Z,4.70
2023-05-04T16:00:40.857Z,4.10
2023-05-04T16:03:09.415Z,4.30
2023-05-04T16:05:38.364Z,4.00
2023-05-04T16:08:06.918Z,4.40
2023-05-04T16:10:36.619Z,4.70
2023-05-04T16:13:06.173Z,4.60
2023-05-04T16:15:35.528Z,3.90
2023-05-04T16:18:04.702Z,4.40
2023-05-04T16:20:36.435Z,4.00
2023-05-04T16:23:04.767Z,4.60
2023-05-04T16:25:33.688Z,4.50
2023-05-04T16:28:02.286Z,4.00
2023-05-04T16:30:33.167Z,5.20
2023-05-04T16:33:02.182Z,6.60
2023-05-04T16:35:34.439Z,5.10
2023-05-04T16:38:04.121Z,5.10
2023-05-04T16:40:33.063Z,5.10
2023-05-04T16:43:01.639Z,5.90
2023-05-04T16:45:32.375Z,4.70
2023-05-04T16:48:01.516Z,6.90
2023-05-04T16:50:30.302Z,6.00
2023-05-04T16:52:59.441Z,5.70
2023-05-04T16:55:27.941Z,6.00
2023-05-04T16:57:59.635Z,5.60
2023-05-04T17:00:28.576Z,4.60
2023-05-04T17:02:56.967Z,6.70
2023-05-04T17:05:25.563Z,6.80
2023-05-04T17:07:54.260Z,5.50
2023-05-04T17:10:22.725Z,5.70
2023-05-04T17:12:54.992Z,7.70
2023-05-04T17:15:23.700Z,6.00
2023-05-04T17:17:52.213Z,4.80
2023-05-04T17:20:21.975Z,5.60
2023-05-04T17:22:51.800Z,5.90
2023-05-04T17:25:20.622Z,7.50
2023-05-04T17:27:49.183Z,9.20
2023-05-04T17:30:17.487Z,12.60
2023-05-04T17:32:45.755Z,19.40
2023-05-04T17:35:24.008Z,15.60
2023-05-04T17:37:58.881Z,13.40
2023-05-04T17:40:29.102Z,7.90
2023-05-04T17:42:57.640Z,9.10
2023-05-04T17:45:26.250Z,10.00
2023-05-04T17:47:54.789Z,6.10
2023-05-04T17:50:23.550Z,6.90
2023-05-04T17:52:55.803Z,4.90
2023-05-04T17:55:25.021Z,5.20
2023-05-04T17:57:54.915Z,6.80
2023-05-04T18:00:23.438Z,6.20
2023-05-04T18:02:52.333Z,5.20
2023-05-04T18:05:20.861Z,6.50
2023-05-04T18:07:49.250Z,5.80
2023-05-04T18:10:17.846Z,10.10
2023-05-04T18:12:46.818Z,7.30
2023-05-04T18:15:17.300Z,6.40
2023-05-04T18:17:46.037Z,7.30
2023-05-04T18:20:18.772Z,7.10
2023-05-04T18:22:47.760Z,9.40
2023-05-04T18:25:16.069Z,6.60
2023-05-04T18:27:44.536Z,8.00
2023-05-04T18:30:13.206Z,7.90
2023-05-04T18:32:41.755Z,6.70
2023-05-04T18:35:10.448Z,8.60
2023-05-04T18:37:39.214Z,6.90
2023-05-04T18:40:08.732Z,6.80
2023-05-04T18:42:37.665Z,6.80
2023-05-04T18:45:07.188Z,7.30
2023-05-04T18:47:35.598Z,6.40
2023-05-04T18:50:04.361Z,6.80
2023-05-04T18:52:34.062Z,5.90
2023-05-04T18:55:02.757Z,6.90
2023-05-04T18:57:31.335Z,5.40
2023-05-04T18:59:59.844Z,6.40
2023-05-04T19:02:30.235Z,6.10
2023-05-04T19:04:58.799Z,6.90
2023-05-04T19:07:27.118Z,6.80
2023-05-04T19:09:55.747Z,6.40
2023-05-04T19:12:24.418Z,7.20
2023-05-04T19:14:53.080Z,6.70
2023-05-04T19:17:23.210Z,8.20
2023-05-04T19:19:52.098Z,8.30
2023-05-04T19:22:21.660Z,8.10
2023-05-04T19:24:51.444Z,12.00
2023-05-04T19:30:59.891Z,12.90
2023-05-04T19:33:36.682Z,13.70
2023-05-04T19:36:14.259Z,12.00
2023-05-04T19:38:42.700Z,11.50
2023-05-04T19:41:11.527Z,12.40
2023-05-04T19:43:39.867Z,10.70
2023-05-04T19:46:08.636Z,13.00
2023-05-04T19:48:38.443Z,10.20
2023-05-04T19:51:07.003Z,8.70
2023-05-04T19:53:35.467Z,10.80
2023-05-04T19:56:04.017Z,10.20
2023-05-04T19:58:32.564Z,10.40
2023-05-04T20:01:01.228Z,10.00
2023-05-04T20:03:29.806Z,11.20
2023-05-04T20:05:58.387Z,12.40
2023-05-04T20:08:27.094Z,8.80
2023-05-04T20:10:55.534Z,10.80
2023-05-04T20:13:25.755Z,12.80
2023-05-04T20:15:54.200Z,11.60
2023-05-04T20:18:23.547Z,10.60
2023-05-04T20:20:52.375Z,11.10
2023-05-04T20:23:20.892Z,11.10
2023-05-04T20:25:50.130Z,13.80
2023-05-04T20:28:18.535Z,13.40
2023-05-04T20:30:46.917Z,11.60
2023-05-04T20:33:15.354Z,11.80
2023-05-04T20:35:45.345Z,11.90
2023-05-04T20:38:14.392Z,13.10
2023-05-04T20:40:42.800Z,11.70
2023-05-04T20:43:11.570Z,11.70
2023-05-04T20:45:40.345Z,12.60
2023-05-04T20:48:11.187Z,12.60
2023-05-04T20:50:40.756Z,12.00
2023-05-04T20:53:09.521Z,13.50
2023-05-04T20:55:40.720Z,11.40
2023-05-04T20:58:09.660Z,11.60
2023-05-04T21:00:38.193Z,12.10
2023-05-04T21:03:07.399Z,10.90
2023-05-04T21:05:39.132Z,12.20
2023-05-04T21:08:07.348Z,11.60
2023-05-04T21:10:35.826Z,13.80
2023-05-04T21:13:04.485Z,13.00
2023-05-04T21:15:32.842Z,12.00
2023-05-04T21:18:01.308Z,11.80
2023-05-04T21:20:29.787Z,12.80
2023-05-04T21:22:58.166Z,12.40
2023-05-04T21:25:26.567Z,13.10
2023-05-04T21:27:58.624Z,12.60
2023-05-04T21:30:30.360Z,13.20
2023-05-04T21:33:00.500Z,12.90
2023-05-04T21:35:32.320Z,11.80
2023-05-04T21:38:00.804Z,12.60
2023-05-04T21:40:29.213Z,13.40
2023-05-04T21:42:59.989Z,14.20
2023-05-04T21:45:31.638Z,13.90
2023-05-04T21:48:02.483Z,15.40
2023-05-04T21:50:31.246Z,14.10
2023-05-04T21:53:00.793Z,14.60
2023-05-04T21:55:32.270Z,14.30
2023-05-04T21:58:06.406Z,13.10
2023-05-04T22:00:35.062Z,13.90
2023-05-04T22:03:08.177Z,13.60
2023-05-04T22:05:36.677Z,13.20
2023-05-04T22:08:06.062Z,13.50
2023-05-04T22:10:35.482Z,14.20
2023-05-04T22:13:04.069Z,15.30
2023-05-04T22:15:46.356Z,14.60
2023-05-04T22:18:18.736Z,14.10
2023-05-04T22:20:47.726Z,13.50
2023-05-04T22:23:16.724Z,13.40
2023-05-04T22:25:45.576Z,15.10
2023-05-04T22:28:15.257Z,14.60
2023-05-04T22:30:44.729Z,13.10
2023-05-04T22:33:13.931Z,15.70
2023-05-04T22:35:49.867Z,17.00
2023-05-04T22:38:18.591Z,16.50
2023-05-04T22:40:48.641Z,16.50
2023-05-04T22:43:18.340Z,15.60
2023-05-04T22:45:47.262Z,14.80
2023-05-04T22:48:15.821Z,14.40
2023-05-04T22:50:44.267Z,15.40
2023-05-04T22:53:14.808Z,17.20
2023-05-04T22:55:43.645Z,15.20
2023-05-04T22:58:12.487Z,15.30
2023-05-04T23:00:44.433Z,16.90
2023-05-04T23:03:16.743Z,17.80
2023-05-04T23:05:45.704Z,15.80
2023-05-04T23:08:14.550Z,17.50
2023-05-04T23:10:47.567Z,18.10
2023-05-04T23:13:17.229Z,18.20
2023-05-04T23:15:46.155Z,18.60
2023-05-04T23:18:14.872Z,17.30
2023-05-04T23:20:43.521Z,17.20
2023-05-04T23:23:11.898Z,17.10
2023-05-04T23:25:40.730Z,18.60
2023-05-04T23:28:09.435Z,17.70
2023-05-04T23:30:38.016Z,19.10
2023-05-04T23:33:07.033Z,16.20
2023-05-04T23:35:35.626Z,18.90
2023-05-04T23:38:04.592Z,18.40
2023-05-04T23:40:33.286Z,18.10
2023-05-04T23:43:02.438Z,16.50
2023-05-04T23:45:31.386Z,17.60
2023-05-04T23:48:01.132Z,19.30
2023-05-04T23:50:29.811Z,18.00
2023-05-04T23:52:58.615Z,18.90
2023-05-04T23:55:27.431Z,15.30
2023-05-04T23:57:56.028Z,15.80
